CYKG

Kangiqsujuaq (Wakeham Bay) Airport

ICAO Code CYKG
IATA Code
Name Kangiqsujuaq (Wakeham Bay) Airport
Location Kangiqsujuaq, Quebec, CA
Elevation 517 Feet / 157.6 Meters
Latitude 61.58861111
Longitude -71.92944444
METAR CYKG 080539Z 12004KT 0SM FZFG OVC002 M01/M01 A3016 RMK ST8 LST STFD OB/ NXT 081200 SLP228
Extra information Display Charts and CFS
Display NOTAMS
Runway Length Width Surface Elevation
15 3520 ft 100 ft GRAVEL 517 ft
33 3520 ft 100 ft GRAVEL 478 ft